Baudette International Airport
KBDE : rendu visible

Aérodrome :











RETROUVEZ-NOUS SUR...

 
LOGIN :

S'inscrire | Disclaimer

   EN    FR    IT 

 









Légende :    VFR   VFR Marginal   IFR   IFR Intensif   IFR Très Intensif
Visi : 
Plafond : 
>= 8 km
>= 3000ft
5 à 8 km
1000 à 3000 ft
1500m à 5 km
500 à 1000 ft
800 à 1500m
200 à 500 ft
< 800m
< 200 ft
Symboles :   Orages  Brouillard  Fortes neiges  Fortes précipitations  Vent > 20 kt






- Altitude de l'aérodrome : 1086 ft


KBDE - Baudette International

DERNIER METAR :
  • 121753Z AUTO 17015G21KT 10SM CLR M12/M18 A3016 RMK AO2 SLP247 I6000 T11171183 11117 21211 58039 $

METARs EXPIRÉS :
  • 121653Z AUTO 17009G20KT 10SM CLR M13/M18 A3022 RMK AO2 SLP265 T11281183 $
  • 121553Z AUTO 17009KT 10SM CLR M14/M18 A3025 RMK AO2 SLP278 T11441183

TAF N/A



MET'MAP, la Météo Aéronautique d'un coup d'oeil ! - Copyright ORBIFLY Décembre 2007 - Disclaimer

ORBIFLY MET'MAP TEAM :

Programmation & Développement : Alexandra Zaïnal
Conception & Développement : Baudouin d'Aumeries
Co-Programmation & Développement : Marc-Olivier Méhu
Soutien technique & logistique : Manuel Goepfert

Contact : metmap@orbifly.com




SOURCES & CREDITS :

   NOAA       Earth
Advisory